Time;durP1;ratioP1;P1;durP2;ratioP2;P2;SDS_P1;SDS_P2;PMS_P1;PMS_P2;Temp;Humidity;BMP_temperature;BMP_pressure;BME280_temperature;BME280_humidity;BME280_pressure;Samples;Min_cycle;Max_cycle;Signal;HPM_P1;HPM_P2
2021/11/12 00:13:26;;;;;;;;;;;8.60;99.90;;;;;;5027077;28;20387;-70
2021/11/12 00:15:53;;;;;;;;;;;8.60;99.90;;;;;;5026737;28;19917;-69
2021/11/12 00:18:23;;;;;;;;;;;8.60;99.90;;;;;;5019443;28;19917;-69
2021/11/12 00:20:49;;;;;;;;;;;8.60;99.90;;;;;;5028282;28;19916;-67
2021/11/12 00:23:15;;;;;;;;;;;8.60;99.90;;;;;;5027719;28;20007;-69
2021/11/12 00:25:42;;;;;;;;;;;8.60;99.90;;;;;;5009573;28;19913;-69
2021/11/12 00:28:09;;;;;;;;;;;8.60;99.90;;;;;;5004559;28;20049;-68
2021/11/12 00:33:27;;;;;;;;;;;8.60;99.90;;;;;;5022866;28;20331;-70
2021/11/12 00:38:43;;;;;;;;;;;8.60;99.90;;;;;;4966993;28;19931;-70
2021/11/12 00:46:42;;;;;;;;;;;8.60;99.90;;;;;;5026629;28;20136;-71
2021/11/12 00:49:11;;;;;;;;;;;8.60;99.90;;;;;;5026360;28;19939;-71
2021/11/12 00:51:43;;;;;;;;;;;8.60;99.90;;;;;;5027044;28;19914;-70
2021/11/12 00:54:09;;;;;;;;;;;8.60;99.90;;;;;;5025793;28;20263;-70
2021/11/12 00:56:34;;;;;;;;;;;8.60;99.90;;;;;;5001893;28;19999;-70
2021/11/12 00:59:01;;;;;;;;;;;8.60;99.90;;;;;;5027319;28;19919;-70
2021/11/12 01:01:29;;;;;;;;;;;8.60;99.90;;;;;;5025663;28;20364;-70
2021/11/12 01:03:55;;;;;;;;;;;8.60;99.90;;;;;;5024311;28;19944;-70
2021/11/12 01:06:21;;;;;;;;;;;8.60;99.90;;;;;;5007308;28;19963;-71
2021/11/12 01:08:47;;;;;;;;;;;8.60;99.90;;;;;;5026909;28;19909;-71
2021/11/12 01:11:14;;;;;;;;;;;8.60;99.90;;;;;;5002358;28;19921;-71
2021/11/12 01:13:40;;;;;;;;;;;8.60;99.90;;;;;;5023534;28;19917;-71
2021/11/12 01:16:06;;;;;;;;;;;8.60;99.90;;;;;;5024098;28;19929;-71
2021/11/12 01:18:34;;;;;;;;;;;8.60;99.90;;;;;;5026480;28;19999;-71
2021/11/12 01:20:59;;;;;;;;;;;8.70;99.90;;;;;;5026867;28;19914;-71
2021/11/12 01:23:25;;;;;;;;;;;8.70;99.90;;;;;;5028521;28;19921;-71
2021/11/12 01:25:50;;;;;;;;;;;8.60;99.90;;;;;;5027936;28;19985;-71
2021/11/12 01:28:16;;;;;;;;;;;8.70;99.90;;;;;;5030259;28;19967;-71
2021/11/12 01:30:42;;;;;;;;;;;8.60;99.90;;;;;;5024862;28;19913;-71
2021/11/12 01:33:07;;;;;;;;;;;8.60;99.90;;;;;;5028985;28;19924;-71
2021/11/12 01:35:33;;;;;;;;;;;8.60;99.90;;;;;;5019746;28;19917;-71
2021/11/12 01:37:59;;;;;;;;;;;8.60;99.90;;;;;;5029017;28;20621;-72
2021/11/12 01:40:26;;;;;;;;;;;8.60;99.90;;;;;;5030169;28;19921;-71
2021/11/12 01:43:04;;;;;;;;;;;8.60;99.90;;;;;;5012318;28;19924;-72
2021/11/12 01:45:38;;;;;;;;;;;8.60;99.90;;;;;;5025375;28;19928;-71
2021/11/12 01:48:23;;;;;;;;;;;8.60;99.90;;;;;;5030752;28;19915;-71
2021/11/12 01:51:04;;;;;;;;;;;8.50;99.90;;;;;;5026438;28;19921;-71
2021/11/12 01:53:37;;;;;;;;;;;8.50;99.90;;;;;;5028791;28;19950;-71
2021/11/12 02:01:19;;;;;;;;;;;8.60;99.90;;;;;;5031343;28;19919;-71
2021/11/12 02:03:46;;;;;;;;;;;8.50;99.90;;;;;;5024736;28;20008;-71
2021/11/12 02:06:15;;;;;;;;;;;8.50;99.90;;;;;;5011769;28;19923;-71
2021/11/12 02:08:40;;;;;;;;;;;8.50;99.90;;;;;;5025792;28;19920;-71
2021/11/12 02:11:05;;;;;;;;;;;8.50;99.90;;;;;;5027566;28;19913;-72
2021/11/12 02:13:33;;;;;;;;;;;8.50;99.90;;;;;;5025822;28;20005;-71
2021/11/12 02:15:59;;;;;;;;;;;8.50;99.90;;;;;;5028563;28;20002;-71
2021/11/12 02:18:29;;;;;;;;;;;8.50;99.90;;;;;;5030396;28;19960;-71
2021/11/12 02:24:04;;;;;;;;;;;8.60;99.90;;;;;;5023407;28;19928;-72
2021/11/12 02:26:34;;;;;;;;;;;8.60;99.90;;;;;;5027683;28;19916;-71
2021/11/12 02:29:00;;;;;;;;;;;8.60;99.90;;;;;;5025021;28;19920;-71
2021/11/12 02:31:27;;;;;;;;;;;8.60;99.90;;;;;;5029391;28;19966;-71
2021/11/12 02:33:54;;;;;;;;;;;8.60;99.90;;;;;;5027478;28;19916;-71
2021/11/12 02:36:19;;;;;;;;;;;8.60;99.90;;;;;;5012039;28;19913;-71
2021/11/12 02:38:47;;;;;;;;;;;8.50;99.90;;;;;;5024966;28;19924;-71
2021/11/12 02:41:13;;;;;;;;;;;8.40;99.90;;;;;;5029727;28;20384;-71
2021/11/12 02:43:40;;;;;;;;;;;8.50;99.90;;;;;;5025506;28;19917;-72
2021/11/12 02:46:06;;;;;;;;;;;8.40;99.90;;;;;;5026761;28;19922;-71
2021/11/12 02:48:37;;;;;;;;;;;8.40;99.90;;;;;;5027463;28;20383;-71
2021/11/12 02:51:04;;;;;;;;;;;8.50;99.90;;;;;;5026341;28;19913;-71
2021/11/12 02:53:30;;;;;;;;;;;8.40;99.90;;;;;;5027602;28;19913;-72
2021/11/12 02:56:01;;;;;;;;;;;8.40;99.90;;;;;;5028748;28;19920;-71
2021/11/12 02:58:26;;;;;;;;;;;8.40;99.90;;;;;;5028129;28;19917;-71
2021/11/12 03:00:51;;;;;;;;;;;8.40;99.90;;;;;;5027820;28;19916;-71
2021/11/12 03:03:17;;;;;;;;;;;8.40;99.90;;;;;;5023201;28;19921;-71
2021/11/12 03:05:42;;;;;;;;;;;8.40;99.90;;;;;;5026997;28;20368;-71
2021/11/12 03:08:08;;;;;;;;;;;8.40;99.90;;;;;;5027295;28;19925;-71
2021/11/12 03:10:33;;;;;;;;;;;8.30;99.90;;;;;;5028195;28;19956;-71
2021/11/12 03:12:59;;;;;;;;;;;8.30;99.90;;;;;;5026910;28;19917;-71
2021/11/12 03:15:24;;;;;;;;;;;8.40;99.90;;;;;;5027183;28;19932;-71
2021/11/12 03:17:52;;;;;;;;;;;8.40;99.90;;;;;;5025499;28;19914;-71
2021/11/12 03:20:18;;;;;;;;;;;8.40;99.90;;;;;;5023732;28;20398;-71
2021/11/12 03:23:00;;;;;;;;;;;8.40;99.90;;;;;;5027237;28;19921;-70
2021/11/12 03:49:34;;;;;;;;;;;8.30;99.90;;;;;;5026352;28;19944;-71
2021/11/12 04:03:36;;;;;;;;;;;8.40;99.90;;;;;;5026797;28;19975;-70
2021/11/12 04:20:04;;;;;;;;;;;8.40;99.90;;;;;;5026609;28;20403;-71
2021/11/12 04:41:29;;;;;;;;;;;8.40;99.90;;;;;;5027091;28;19916;-71
2021/11/12 05:11:42;;;;;;;;;;;8.40;99.90;;;;;;5025079;28;19920;-71
2021/11/12 05:44:04;;;;;;;;;;;8.10;99.90;;;;;;5027732;28;20043;-68
2021/11/12 05:57:08;;;;;;;;;;;8.20;99.90;;;;;;5029632;28;19920;-73
2021/11/12 05:59:33;;;;;;;;;;;8.20;99.90;;;;;;5027922;28;19914;-72
2021/11/12 06:01:59;;;;;;;;;;;8.30;99.90;;;;;;5025060;28;19917;-72
2021/11/12 06:04:25;;;;;;;;;;;8.30;99.90;;;;;;5051840;22;19972;-72
2021/11/12 06:06:50;;;;;;;;;;;8.30;99.90;;;;;;5027997;28;20082;-72
2021/11/12 06:09:16;;;;;;;;;;;8.40;99.90;;;;;;5024773;28;20008;-72
2021/11/12 06:11:42;;;;;;;;;;;8.40;99.90;;;;;;5027999;28;19917;-69
2021/11/12 06:14:08;;;;;;;;;;;8.30;99.90;;;;;;5018626;28;19917;-69
2021/11/12 06:16:33;;;;;;;;;;;8.40;99.90;;;;;;5025841;28;20558;-74
2021/11/12 06:19:00;;;;;;;;;;;8.60;99.90;;;;;;5007245;28;19919;-77
2021/11/12 06:21:25;;;;;;;;;;;8.60;99.90;;;;;;5017517;28;19922;-77
2021/11/12 06:23:51;;;;;;;;;;;8.60;99.90;;;;;;5026756;28;19937;-77
2021/11/12 06:26:17;;;;;;;;;;;8.60;99.90;;;;;;5009809;28;19916;-77
2021/11/12 06:28:43;;;;;;;;;;;8.50;99.90;;;;;;5028653;28;19964;-77
2021/11/12 06:31:08;;;;;;;;;;;8.50;99.90;;;;;;5027548;28;19909;-77
2021/11/12 06:33:34;;;;;;;;;;;8.50;99.90;;;;;;5028053;28;19932;-77
2021/11/12 06:35:59;;;;;;;;;;;8.40;99.90;;;;;;5011473;28;19909;-77
2021/11/12 06:38:27;;;;;;;;;;;8.40;99.90;;;;;;5012525;28;19926;-77
2021/11/12 06:40:53;;;;;;;;;;;8.40;99.90;;;;;;5010034;28;19943;-77
2021/11/12 06:51:33;;;;;;;;;;;8.30;99.90;;;;;;5029110;28;20540;-76
2021/11/12 06:53:59;;;;;;;;;;;8.30;99.90;;;;;;5026406;28;19935;-76
2021/11/12 06:56:24;;;;;;;;;;;8.30;99.90;;;;;;5018702;28;20253;-77
2021/11/12 06:58:51;;;;;;;;;;;8.30;99.90;;;;;;5007343;28;19975;-76
2021/11/12 07:01:17;;;;;;;;;;;8.30;99.90;;;;;;5028759;28;19917;-77
2021/11/12 07:03:42;;;;;;;;;;;8.40;99.90;;;;;;5019872;28;19917;-75
2021/11/12 07:06:08;;;;;;;;;;;8.40;99.90;;;;;;5024811;28;19924;-75
2021/11/12 07:08:33;;;;;;;;;;;8.40;99.90;;;;;;5020488;28;19913;-75
2021/11/12 07:10:59;;;;;;;;;;;8.40;99.90;;;;;;5025036;28;20372;-74
2021/11/12 07:13:25;;;;;;;;;;;8.40;99.90;;;;;;5028727;28;19913;-74
2021/11/12 07:15:51;;;;;;;;;;;8.40;99.90;;;;;;5025400;28;19918;-79
2021/11/12 07:18:18;;;;;;;;;;;8.30;99.90;;;;;;5028029;28;19909;-79
2021/11/12 07:20:45;;;;;;;;;;;8.30;99.90;;;;;;5023288;28;19971;-79
2021/11/12 07:23:10;;;;;;;;;;;8.30;99.90;;;;;;5027701;28;20284;-79
2021/11/12 07:25:36;;;;;;;;;;;8.30;99.90;;;;;;5027892;28;19948;-78
2021/11/12 07:28:01;;;;;;;;;;;8.30;99.90;;;;;;5008236;28;19913;-77
2021/11/12 07:30:27;;;;;;;;;;;8.30;99.90;;;;;;5027656;28;19917;-78
2021/11/12 07:32:53;;;;;;;;;;;8.40;99.90;;;;;;5018800;28;19913;-77
2021/11/12 07:35:23;;;;;;;;;;;8.40;99.90;;;;;;5010909;28;19995;-76
2021/11/12 07:37:56;;;;;;;;;;;8.40;99.90;;;;;;5012312;28;19963;-76
2021/11/12 07:40:26;;;;;;;;;;;8.50;99.90;;;;;;5024716;28;19919;-76
2021/11/12 07:43:05;;;;;;;;;;;8.50;99.90;;;;;;5027028;28;19987;-75
2021/11/12 07:45:37;;;;;;;;;;;8.50;99.90;;;;;;5028042;28;19940;-77
2021/11/12 07:48:02;;;;;;;;;;;8.50;99.90;;;;;;5009697;28;20283;-76
2021/11/12 07:50:28;;;;;;;;;;;8.50;99.90;;;;;;5026857;28;19914;-78
2021/11/12 07:52:53;;;;;;;;;;;8.50;99.90;;;;;;5024550;28;19913;-74
2021/11/12 07:55:19;;;;;;;;;;;8.50;99.90;;;;;;5024966;28;19917;-73
2021/11/12 07:57:44;;;;;;;;;;;8.50;99.90;;;;;;5022838;28;19917;-76
2021/11/12 08:00:10;;;;;;;;;;;8.50;99.90;;;;;;5023291;28;19922;-75
2021/11/12 08:02:35;;;;;;;;;;;8.50;99.90;;;;;;5026948;28;19928;-74
2021/11/12 08:05:08;;;;;;;;;;;8.60;99.90;;;;;;5023415;28;19925;-74
2021/11/12 08:07:35;;;;;;;;;;;8.60;99.90;;;;;;5023421;28;21305;-76
2021/11/12 08:10:04;;;;;;;;;;;8.60;99.90;;;;;;5026388;28;20359;-76
2021/11/12 08:12:39;;;;;;;;;;;8.60;99.90;;;;;;5026431;28;19913;-74
2021/11/12 08:17:38;;;;;;;;;;;8.60;99.90;;;;;;5023031;28;19917;-74
2021/11/12 08:20:16;;;;;;;;;;;8.60;99.90;;;;;;5027358;28;19920;-74
2021/11/12 08:22:56;;;;;;;;;;;8.70;99.90;;;;;;5025476;28;19917;-74
2021/11/12 08:25:27;;;;;;;;;;;8.70;99.90;;;;;;5025267;28;20066;-75
2021/11/12 08:28:08;;;;;;;;;;;8.70;99.90;;;;;;5023848;28;19996;-76
2021/11/12 08:31:03;;;;;;;;;;;8.70;99.90;;;;;;5027447;28;19948;-76
2021/11/12 08:33:28;;;;;;;;;;;8.80;99.90;;;;;;5024030;28;20417;-76
2021/11/12 08:38:38;;;;;;;;;;;8.70;99.90;;;;;;5026511;28;19917;-75
2021/11/12 08:41:14;;;;;;;;;;;8.70;99.90;;;;;;5024254;28;19924;-73
2021/11/12 08:44:04;;;;;;;;;;;8.70;99.90;;;;;;5026533;28;19917;-72
2021/11/12 08:46:33;;;;;;;;;;;8.70;99.90;;;;;;5023809;28;20368;-73
2021/11/12 08:49:06;;;;;;;;;;;8.60;99.90;;;;;;5026868;28;20019;-72
2021/11/12 08:51:34;;;;;;;;;;;8.70;99.90;;;;;;5021910;28;19913;-71
2021/11/12 08:54:01;;;;;;;;;;;8.70;99.90;;;;;;5023555;28;20008;-70
2021/11/12 08:56:28;;;;;;;;;;;8.70;99.90;;;;;;5027428;28;19936;-70
2021/11/12 08:58:53;;;;;;;;;;;8.70;99.90;;;;;;5022709;28;19947;-70
2021/11/12 09:01:19;;;;;;;;;;;8.70;99.90;;;;;;5023006;28;19960;-71
2021/11/12 09:03:45;;;;;;;;;;;8.60;99.90;;;;;;5027654;28;19925;-72
2021/11/12 09:06:10;;;;;;;;;;;8.60;99.90;;;;;;5022883;28;19917;-73
2021/11/12 09:08:37;;;;;;;;;;;8.70;99.90;;;;;;5023544;28;20383;-74
2021/11/12 09:11:04;;;;;;;;;;;8.70;99.90;;;;;;5024663;28;19913;-75
2021/11/12 09:13:34;;;;;;;;;;;8.70;99.90;;;;;;5022786;28;20382;-74
2021/11/12 09:16:07;;;;;;;;;;;8.60;99.90;;;;;;5025704;28;19913;-72
2021/11/12 09:18:32;;;;;;;;;;;8.60;99.90;;;;;;5023756;28;19913;-73
2021/11/12 09:20:58;;;;;;;;;;;8.60;99.90;;;;;;5025790;28;19914;-73
2021/11/12 09:23:24;;;;;;;;;;;8.60;99.90;;;;;;5023318;28;19917;-71
2021/11/12 09:25:50;;;;;;;;;;;8.60;99.90;;;;;;5024576;28;19917;-73
2021/11/12 09:28:15;;;;;;;;;;;8.50;99.90;;;;;;5025921;28;19924;-71
2021/11/12 09:30:41;;;;;;;;;;;8.50;99.90;;;;;;5020090;28;19917;-73
2021/11/12 09:33:07;;;;;;;;;;;8.50;99.90;;;;;;5026912;28;20486;-74
2021/11/12 09:35:33;;;;;;;;;;;8.50;99.90;;;;;;5022946;28;19924;-74
2021/11/12 09:37:59;;;;;;;;;;;8.40;99.90;;;;;;5021845;28;19956;-74
2021/11/12 09:40:25;;;;;;;;;;;8.40;99.90;;;;;;5021347;28;19963;-76
2021/11/12 09:42:51;;;;;;;;;;;8.30;99.90;;;;;;5007445;28;19917;-75
2021/11/12 09:45:17;;;;;;;;;;;8.30;99.90;;;;;;5021409;28;20291;-73
2021/11/12 09:47:43;;;;;;;;;;;8.20;99.90;;;;;;5009816;28;19920;-73
2021/11/12 09:50:11;;;;;;;;;;;8.10;99.90;;;;;;5028336;28;20356;-73
2021/11/12 09:52:37;;;;;;;;;;;8.10;99.90;;;;;;5016420;28;19953;-77
2021/11/12 09:55:04;;;;;;;;;;;8.10;99.90;;;;;;5028840;28;19963;-75
2021/11/12 09:57:30;;;;;;;;;;;8.20;99.90;;;;;;5021758;28;19914;-77
2021/11/12 09:59:58;;;;;;;;;;;8.20;99.90;;;;;;5023560;28;20093;-74
2021/11/12 10:02:26;;;;;;;;;;;8.20;99.90;;;;;;5024914;28;20371;-75
2021/11/12 10:04:52;;;;;;;;;;;8.20;99.90;;;;;;5030093;28;19970;-73
2021/11/12 10:07:17;;;;;;;;;;;8.30;99.90;;;;;;5025849;28;19921;-74
2021/11/12 10:09:44;;;;;;;;;;;8.30;99.90;;;;;;5007168;28;19913;-73
2021/11/12 10:12:11;;;;;;;;;;;8.20;99.90;;;;;;5025649;28;20265;-73
2021/11/12 10:14:43;;;;;;;;;;;8.30;99.90;;;;;;5010721;28;19921;-72
2021/11/12 10:17:09;;;;;;;;;;;8.30;99.90;;;;;;5026238;28;19927;-76
2021/11/12 10:19:41;;;;;;;;;;;8.30;99.90;;;;;;5012043;28;19913;-74
2021/11/12 10:22:06;;;;;;;;;;;8.20;99.90;;;;;;5024928;28;19925;-75
2021/11/12 10:24:35;;;;;;;;;;;8.00;99.90;;;;;;5020685;28;19917;-77
2021/11/12 10:27:06;;;;;;;;;;;7.90;99.90;;;;;;5024379;28;20005;-75
2021/11/12 10:29:35;;;;;;;;;;;7.80;99.90;;;;;;5028149;28;19921;-72
2021/11/12 10:32:06;;;;;;;;;;;7.80;99.90;;;;;;5029073;28;19914;-72
2021/11/12 10:34:34;;;;;;;;;;;7.80;99.90;;;;;;5027397;28;20411;-74
2021/11/12 10:37:01;;;;;;;;;;;7.90;99.90;;;;;;5025675;28;19917;-74
2021/11/12 10:39:34;;;;;;;;;;;7.90;99.90;;;;;;5026958;28;19952;-74
2021/11/12 10:42:01;;;;;;;;;;;7.90;99.90;;;;;;5027000;28;20347;-75
2021/11/12 10:44:28;;;;;;;;;;;8.00;99.90;;;;;;5025048;28;19971;-76
2021/11/12 10:46:54;;;;;;;;;;;8.00;99.90;;;;;;5031016;28;19920;-75
2021/11/12 10:49:22;;;;;;;;;;;8.00;99.90;;;;;;5009520;28;19913;-75
2021/11/12 10:52:10;;;;;;;;;;;7.90;99.90;;;;;;5025393;28;19917;-75
2021/11/12 10:55:01;;;;;;;;;;;8.00;99.90;;;;;;5026639;28;19924;-75
2021/11/12 10:57:38;;;;;;;;;;;8.10;99.90;;;;;;5024262;28;20477;-75
2021/11/12 11:00:18;;;;;;;;;;;8.20;99.90;;;;;;5005106;28;19917;-75
2021/11/12 11:02:55;;;;;;;;;;;8.20;99.90;;;;;;5023417;28;19921;-74
2021/11/12 11:05:22;;;;;;;;;;;8.30;99.90;;;;;;5022535;28;19979;-74
2021/11/12 11:07:48;;;;;;;;;;;8.60;99.90;;;;;;5019749;28;19913;-75
2021/11/12 11:10:20;;;;;;;;;;;8.70;99.90;;;;;;5015209;28;20009;-75
2021/11/12 11:12:45;;;;;;;;;;;8.80;99.90;;;;;;5021640;28;20379;-75
2021/11/12 11:15:11;;;;;;;;;;;8.80;99.90;;;;;;5020533;28;19945;-74
2021/11/12 11:17:38;;;;;;;;;;;8.90;99.90;;;;;;5022804;28;20378;-75
2021/11/12 11:20:09;;;;;;;;;;;9.00;99.90;;;;;;5020910;28;19921;-75
2021/11/12 11:22:44;;;;;;;;;;;9.20;99.90;;;;;;5021393;28;20019;-75
2021/11/12 11:25:10;;;;;;;;;;;9.40;99.90;;;;;;5021315;28;20376;-75
2021/11/12 11:27:36;;;;;;;;;;;9.50;99.90;;;;;;5024358;28;19917;-74
2021/11/12 11:30:02;;;;;;;;;;;9.60;99.90;;;;;;5017425;28;19921;-75
2021/11/12 11:32:28;;;;;;;;;;;9.70;99.90;;;;;;5022049;28;19917;-77
2021/11/12 11:34:54;;;;;;;;;;;9.80;99.90;;;;;;5020033;28;20373;-76
2021/11/12 11:37:19;;;;;;;;;;;9.80;99.90;;;;;;5003792;28;19971;-76
2021/11/12 11:39:45;;;;;;;;;;;9.90;99.90;;;;;;5005934;28;19941;-77
2021/11/12 11:42:12;;;;;;;;;;;9.90;99.90;;;;;;5015280;28;19917;-77
2021/11/12 11:44:39;;;;;;;;;;;9.90;99.90;;;;;;5021935;28;19923;-73
2021/11/12 11:47:05;;;;;;;;;;;9.90;99.90;;;;;;5018327;28;19925;-78
2021/11/12 11:49:32;;;;;;;;;;;10.00;99.90;;;;;;5023372;28;19917;-74
2021/11/12 11:52:00;;;;;;;;;;;10.20;99.90;;;;;;5022901;28;19913;-73
2021/11/12 11:54:27;;;;;;;;;;;10.20;99.90;;;;;;5022031;28;19969;-73
2021/11/12 11:56:57;;;;;;;;;;;10.30;99.40;;;;;;5023774;28;19913;-74
2021/11/12 11:59:29;;;;;;;;;;;10.20;99.90;;;;;;5018803;28;19921;-74
2021/11/12 12:02:02;;;;;;;;;;;10.10;99.90;;;;;;5021863;28;20442;-74
2021/11/12 12:04:29;;;;;;;;;;;9.90;99.70;;;;;;5037109;22;19925;-62
2021/11/12 12:07:01;;;;;;;;;;;9.90;99.80;;;;;;5039205;28;19974;-63
2021/11/12 12:09:38;;;;;;;;;;;9.90;99.90;;;;;;5038010;28;19999;-60
2021/11/12 12:12:04;;;;;;;;;;;9.90;99.50;;;;;;5012304;28;20408;-62
2021/11/12 12:14:31;;;;;;;;;;;9.90;99.40;;;;;;5011844;28;20098;-61
2021/11/12 12:17:02;;;;;;;;;;;9.90;99.50;;;;;;5008537;28;19969;-62
2021/11/12 12:19:45;;;;;;;;;;;9.90;99.50;;;;;;5010302;28;19918;-62
2021/11/12 12:30:51;;;;;;;;;;;9.90;99.50;;;;;;5012662;28;19943;-62
2021/11/12 12:31:22;;;;;;;;;;;9.90;99.50;;;;;;5006370;28;20042;-63
2021/11/12 13:24:30;;;;;;;;;;;9.40;99.90;;;;;;5010699;28;19918;-62
2021/11/12 13:27:06;;;;;;;;;;;9.30;99.90;;;;;;5008116;28;19913;-62
2021/11/12 13:29:32;;;;;;;;;;;9.10;99.90;;;;;;5010648;28;19913;-62
2021/11/12 13:32:02;;;;;;;;;;;9.00;99.90;;;;;;5011325;28;19921;-62
2021/11/12 13:34:29;;;;;;;;;;;9.00;99.90;;;;;;5027822;28;20354;-63
2021/11/12 13:36:54;;;;;;;;;;;8.80;99.90;;;;;;5012284;28;20321;-62
2021/11/12 13:39:20;;;;;;;;;;;8.70;99.90;;;;;;5033322;28;19922;-62
2021/11/12 13:41:51;;;;;;;;;;;8.50;99.90;;;;;;5010588;28;19913;-62
2021/11/12 13:44:21;;;;;;;;;;;8.50;99.90;;;;;;5013928;28;19925;-62
2021/11/12 13:46:51;;;;;;;;;;;8.50;99.90;;;;;;5012764;28;19914;-64
2021/11/12 13:49:26;;;;;;;;;;;8.50;99.90;;;;;;5014082;28;19920;-62
2021/11/12 13:51:51;;;;;;;;;;;8.50;99.90;;;;;;5016492;28;19925;-62
2021/11/12 13:54:17;;;;;;;;;;;8.50;99.90;;;;;;5011120;28;20194;-62
2021/11/12 13:56:42;;;;;;;;;;;8.50;99.90;;;;;;5011888;28;19975;-62
2021/11/12 13:59:10;;;;;;;;;;;8.50;99.90;;;;;;5008936;28;19917;-62
2021/11/12 14:01:36;;;;;;;;;;;8.40;99.90;;;;;;5010690;28;19957;-62
2021/11/12 14:04:02;;;;;;;;;;;8.30;99.90;;;;;;5009503;28;19971;-62
2021/11/12 14:06:38;;;;;;;;;;;8.30;99.90;;;;;;5010790;28;20024;-63
2021/11/12 14:09:04;;;;;;;;;;;8.30;99.90;;;;;;5037917;28;20332;-60
2021/11/12 14:11:31;;;;;;;;;;;8.30;99.90;;;;;;5014758;28;19952;-61
2021/11/12 14:13:59;;;;;;;;;;;8.30;99.90;;;;;;5009760;28;20348;-61
2021/11/12 14:16:51;;;;;;;;;;;8.40;99.90;;;;;;5010801;28;21086;-62
2021/11/12 14:19:48;;;;;;;;;;;8.20;99.90;;;;;;5024573;28;20374;-61
2021/11/12 14:22:28;;;;;;;;;;;8.10;99.90;;;;;;5010429;28;19921;-62
2021/11/12 14:25:07;;;;;;;;;;;8.00;99.90;;;;;;5015050;28;19929;-61
2021/11/12 14:27:37;;;;;;;;;;;8.00;99.90;;;;;;5019236;28;20405;-61
2021/11/12 14:33:05;;;;;;;;;;;7.80;99.90;;;;;;5017288;28;19977;-61
2021/11/12 14:38:16;;;;;;;;;;;7.90;99.90;;;;;;5012071;28;19917;-61
2021/11/12 14:46:11;;;;;;;;;;;7.90;99.90;;;;;;5013460;28;19920;-62
2021/11/12 14:51:36;;;;;;;;;;;7.80;99.90;;;;;;5010506;28;19924;-62
2021/11/12 14:54:03;;;;;;;;;;;7.70;99.90;;;;;;5015276;28;19916;-61
2021/11/12 14:56:31;;;;;;;;;;;7.60;99.90;;;;;;5010056;28;19999;-62
2021/11/12 14:58:59;;;;;;;;;;;7.50;99.90;;;;;;5013093;28;19921;-62
2021/11/12 15:01:26;;;;;;;;;;;7.50;99.90;;;;;;5015952;28;19944;-63
2021/11/12 15:03:52;;;;;;;;;;;7.40;99.90;;;;;;5012373;28;20060;-62
2021/11/12 15:06:20;;;;;;;;;;;7.40;99.90;;;;;;5007372;28;20363;-62
2021/11/12 15:11:11;;;;;;;;;;;7.20;99.90;;;;;;5010901;28;19921;-62
2021/11/12 15:13:38;;;;;;;;;;;7.10;99.90;;;;;;5018200;28;19920;-62
2021/11/12 15:16:12;;;;;;;;;;;7.00;99.90;;;;;;5016656;28;19913;-62
2021/11/12 15:18:38;;;;;;;;;;;6.90;99.90;;;;;;5008773;28;19918;-62
2021/11/12 15:21:08;;;;;;;;;;;6.90;99.90;;;;;;5023651;28;19920;-63
2021/11/12 15:23:59;;;;;;;;;;;6.80;99.90;;;;;;5007953;28;19922;-63
2021/11/12 15:26:30;;;;;;;;;;;6.80;99.90;;;;;;5008399;28;19920;-62
2021/11/12 15:29:12;;;;;;;;;;;6.70;99.90;;;;;;5026264;28;19913;-62
2021/11/12 15:34:10;;;;;;;;;;;6.60;99.90;;;;;;5007917;28;19918;-60
2021/11/12 15:36:43;;;;;;;;;;;6.60;99.90;;;;;;5007739;28;20553;-62
2021/11/12 15:39:18;;;;;;;;;;;6.60;99.90;;;;;;5009818;28;19918;-61
2021/11/12 15:42:20;;;;;;;;;;;6.60;99.90;;;;;;5012118;28;19918;-61
2021/11/12 15:44:50;;;;;;;;;;;6.50;99.90;;;;;;5007468;28;19918;-61
2021/11/12 15:47:22;;;;;;;;;;;6.40;99.90;;;;;;5008215;28;19945;-61
2021/11/12 15:49:51;;;;;;;;;;;6.40;99.90;;;;;;5011913;28;19979;-62
2021/11/12 16:00:12;;;;;;;;;;;6.40;99.90;;;;;;5018083;28;19917;-61
2021/11/12 16:05:42;;;;;;;;;;;6.40;99.90;;;;;;5007898;28;19924;-62
2021/11/12 16:08:24;;;;;;;;;;;6.30;99.90;;;;;;5008427;28;20478;-62
2021/11/12 16:18:50;;;;;;;;;;;6.00;99.90;;;;;;5007909;28;20425;-60
2021/11/12 16:26:29;;;;;;;;;;;6.00;99.90;;;;;;5007235;28;19916;-61
2021/11/12 16:31:30;;;;;;;;;;;6.10;99.90;;;;;;5009895;28;19918;-60
2021/11/12 16:33:58;;;;;;;;;;;6.10;99.90;;;;;;5005858;28;20078;-61
2021/11/12 16:36:24;;;;;;;;;;;6.00;99.90;;;;;;5008230;28;19990;-61
2021/11/12 16:38:51;;;;;;;;;;;6.00;99.90;;;;;;5005428;28;19914;-61
2021/11/12 16:41:22;;;;;;;;;;;6.00;99.90;;;;;;5007181;28;19917;-60
2021/11/12 16:46:44;;;;;;;;;;;6.00;99.90;;;;;;5012137;28;19913;-62
2021/11/12 16:49:20;;;;;;;;;;;5.90;99.90;;;;;;5016748;28;20423;-61
2021/11/12 16:54:35;;;;;;;;;;;5.80;99.90;;;;;;5007259;28;20660;-61
2021/11/12 16:59:53;;;;;;;;;;;5.70;99.90;;;;;;5009226;28;19917;-62
2021/11/12 17:02:36;;;;;;;;;;;5.70;99.90;;;;;;5012891;28;19921;-61
2021/11/12 17:10:15;;;;;;;;;;;5.60;99.90;;;;;;5008363;28;19924;-61
2021/11/12 17:13:06;;;;;;;;;;;5.60;99.90;;;;;;5010729;28;19929;-61
2021/11/12 17:47:49;;;;;;;;;;;5.40;99.90;;;;;;5008056;28;20363;-61
2021/11/12 17:50:21;;;;;;;;;;;5.40;99.90;;;;;;5024955;28;19933;-62
2021/11/12 17:53:14;;;;;;;;;;;5.50;99.90;;;;;;5010842;28;20060;-62
2021/11/12 18:04:01;;;;;;;;;;;5.30;99.90;;;;;;5011553;28;19923;-63
2021/11/12 18:12:20;;;;;;;;;;;5.20;99.90;;;;;;5027675;28;19920;-58
2021/11/12 18:14:56;;;;;;;;;;;5.30;99.90;;;;;;5027048;28;19921;-59
2021/11/12 21:48:16;;;;;;;;;;;5.00;99.90;;;;;;5022677;28;20012;-61
2021/11/12 21:50:42;;;;;;;;;;;4.90;99.90;;;;;;5023359;28;20119;-61
2021/11/12 21:53:08;;;;;;;;;;;4.90;99.90;;;;;;5021150;28;20469;-62
2021/11/12 21:55:34;;;;;;;;;;;4.90;99.90;;;;;;5020058;28;19914;-61
2021/11/12 21:58:00;;;;;;;;;;;4.90;99.90;;;;;;5025571;28;20378;-61
2021/11/12 22:00:26;;;;;;;;;;;5.00;99.90;;;;;;5025290;28;19917;-60
2021/11/12 22:02:52;;;;;;;;;;;5.00;99.90;;;;;;5024122;28;20274;-61
2021/11/12 22:05:18;;;;;;;;;;;5.00;99.90;;;;;;5025512;28;20336;-61
2021/11/12 22:07:43;;;;;;;;;;;5.00;99.90;;;;;;5026969;28;19925;-60
2021/11/12 22:10:09;;;;;;;;;;;5.00;99.90;;;;;;5024100;28;19921;-60
2021/11/12 22:12:35;;;;;;;;;;;5.00;99.90;;;;;;5005196;28;20342;-61
2021/11/12 22:15:00;;;;;;;;;;;4.90;99.90;;;;;;5024850;28;19959;-61
2021/11/12 22:17:26;;;;;;;;;;;4.80;99.90;;;;;;5025678;28;19983;-61
2021/11/12 22:19:51;;;;;;;;;;;4.70;99.90;;;;;;5026887;28;19983;-61
2021/11/12 22:22:17;;;;;;;;;;;4.70;99.90;;;;;;5022370;28;19925;-61
2021/11/12 22:24:42;;;;;;;;;;;4.70;99.90;;;;;;5024013;28;19917;-60
2021/11/12 22:27:08;;;;;;;;;;;4.70;99.90;;;;;;5013738;28;20215;-61
2021/11/12 22:29:33;;;;;;;;;;;4.70;99.90;;;;;;5027707;28;19939;-60
2021/11/12 22:32:00;;;;;;;;;;;4.70;99.90;;;;;;5024313;28;19917;-61
2021/11/12 22:34:25;;;;;;;;;;;4.60;99.90;;;;;;5025765;28;19921;-60
2021/11/12 22:36:51;;;;;;;;;;;4.60;99.90;;;;;;5023841;28;20381;-61
2021/11/12 22:39:18;;;;;;;;;;;4.60;99.90;;;;;;5025179;28;20314;-62
2021/11/12 22:41:44;;;;;;;;;;;4.60;99.90;;;;;;5007222;28;19923;-60
2021/11/12 22:44:10;;;;;;;;;;;4.60;99.90;;;;;;5006268;28;20429;-60
2021/11/12 22:46:36;;;;;;;;;;;4.60;99.90;;;;;;5024834;28;19920;-61
2021/11/12 22:49:02;;;;;;;;;;;4.60;99.90;;;;;;5009856;28;19967;-61
2021/11/12 22:51:29;;;;;;;;;;;4.50;99.90;;;;;;5025995;28;19913;-62
2021/11/12 22:53:55;;;;;;;;;;;4.50;99.90;;;;;;5003304;28;19920;-61
2021/11/12 22:56:21;;;;;;;;;;;4.50;99.90;;;;;;5026120;28;19913;-61
2021/11/12 22:58:46;;;;;;;;;;;4.50;99.90;;;;;;5009292;28;20007;-61
2021/11/12 23:01:15;;;;;;;;;;;4.50;99.90;;;;;;5023462;28;19924;-61
2021/11/12 23:03:41;;;;;;;;;;;4.50;99.90;;;;;;5024959;28;19917;-60
2021/11/12 23:06:06;;;;;;;;;;;4.60;99.90;;;;;;5024550;28;20381;-61
2021/11/12 23:08:32;;;;;;;;;;;4.60;99.90;;;;;;5007167;28;20527;-61
2021/11/12 23:10:57;;;;;;;;;;;4.60;99.90;;;;;;5022582;28;20435;-60
2021/11/12 23:13:26;;;;;;;;;;;4.50;99.90;;;;;;5025629;28;19928;-60
2021/11/12 23:15:52;;;;;;;;;;;4.40;99.90;;;;;;5023692;28;20332;-61
2021/11/12 23:18:17;;;;;;;;;;;4.50;99.90;;;;;;5025791;28;20443;-61
2021/11/12 23:20:43;;;;;;;;;;;4.50;99.90;;;;;;5025824;28;20084;-60
2021/11/12 23:23:08;;;;;;;;;;;4.60;99.90;;;;;;5004601;28;19917;-60
2021/11/12 23:25:34;;;;;;;;;;;4.60;99.90;;;;;;5025243;28;19913;-60
2021/11/12 23:27:59;;;;;;;;;;;4.50;99.90;;;;;;5025402;28;20297;-59
2021/11/12 23:30:25;;;;;;;;;;;4.50;99.90;;;;;;5025052;28;20012;-60
2021/11/12 23:32:51;;;;;;;;;;;4.40;99.90;;;;;;5023723;28;19920;-60
2021/11/12 23:35:16;;;;;;;;;;;4.50;99.90;;;;;;5022579;28;20393;-61
2021/11/12 23:37:42;;;;;;;;;;;4.60;99.90;;;;;;5023025;28;19995;-60
2021/11/12 23:40:08;;;;;;;;;;;4.50;99.90;;;;;;5024682;28;20397;-60
2021/11/12 23:42:34;;;;;;;;;;;4.40;99.90;;;;;;5023670;28;19913;-61
2021/11/12 23:44:59;;;;;;;;;;;4.40;99.90;;;;;;5024761;28;19943;-61
2021/11/12 23:47:25;;;;;;;;;;;4.30;99.90;;;;;;5026979;28;20290;-61
2021/11/12 23:49:50;;;;;;;;;;;4.20;99.90;;;;;;5023601;28;19927;-60
2021/11/12 23:52:16;;;;;;;;;;;4.20;99.90;;;;;;5020294;28;20337;-60